createdAt,value
2019-02-21T00:00:54.358Z,38.20
2019-02-21T00:03:53.941Z,38.10
2019-02-21T00:06:42.958Z,38.00
2019-02-21T00:09:44.301Z,38.20
2019-02-21T00:12:18.819Z,38.10
2019-02-21T00:14:56.116Z,38.30
2019-02-21T00:17:32.673Z,38.30
2019-02-21T00:20:23.941Z,38.20
2019-02-21T00:23:00.486Z,38.20
2019-02-21T00:25:38.470Z,38.10
2019-02-21T00:28:16.000Z,38.10
2019-02-21T00:30:52.035Z,38.00
2019-02-21T00:33:28.293Z,38.10
2019-02-21T00:36:04.617Z,38.40
2019-02-21T00:38:40.473Z,38.00
2019-02-21T00:41:17.035Z,38.10
2019-02-21T00:43:53.117Z,38.10
2019-02-21T00:46:29.769Z,38.00
2019-02-21T00:49:05.808Z,38.10
2019-02-21T00:51:43.500Z,38.00
2019-02-21T00:54:19.999Z,38.20
2019-02-21T00:56:56.863Z,38.30
2019-02-21T00:59:32.860Z,38.70
2019-02-21T01:02:09.773Z,38.90
2019-02-21T01:04:46.056Z,38.90
2019-02-21T01:07:23.206Z,38.90
2019-02-21T01:09:59.858Z,38.90
2019-02-21T01:12:35.663Z,39.10
2019-02-21T01:15:12.175Z,38.90
2019-02-21T01:17:49.066Z,38.90
2019-02-21T01:20:25.526Z,38.90
2019-02-21T01:23:01.915Z,38.80
2019-02-21T01:25:38.558Z,38.90
2019-02-21T01:28:14.753Z,38.90
2019-02-21T01:30:57.022Z,38.90
2019-02-21T01:33:28.000Z,38.80
2019-02-21T01:36:03.837Z,38.90
2019-02-21T01:38:41.510Z,38.90
2019-02-21T01:41:18.705Z,38.90
2019-02-21T01:43:54.913Z,38.80
2019-02-21T01:46:31.437Z,38.70
2019-02-21T01:49:08.116Z,38.60
2019-02-21T01:51:44.258Z,38.70
2019-02-21T01:54:19.989Z,38.70
2019-02-21T01:56:56.176Z,38.70
2019-02-21T01:59:32.579Z,38.70
2019-02-21T02:02:08.804Z,38.60
2019-02-21T02:04:45.048Z,38.70
2019-02-21T02:07:21.745Z,38.60
2019-02-21T02:09:59.062Z,38.50
2019-02-21T02:12:35.488Z,38.60
2019-02-21T02:15:12.066Z,38.60
2019-02-21T02:17:48.544Z,38.60
2019-02-21T02:20:25.405Z,38.50
2019-02-21T02:23:01.395Z,38.50
2019-02-21T02:25:38.470Z,38.40
2019-02-21T02:28:15.029Z,38.50
2019-02-21T02:30:53.274Z,38.60
2019-02-21T02:33:29.323Z,38.30
2019-02-21T02:36:09.756Z,38.50
2019-02-21T02:38:46.570Z,38.30
2019-02-21T02:41:22.825Z,38.30
2019-02-21T02:43:59.160Z,38.20
2019-02-21T02:46:35.734Z,38.40
2019-02-21T02:49:11.830Z,38.10
2019-02-21T02:51:47.949Z,38.10
2019-02-21T02:54:24.778Z,38.20
2019-02-21T02:57:15.274Z,38.20
2019-02-21T02:59:56.999Z,38.30
2019-02-21T03:02:40.262Z,38.20
2019-02-21T03:05:15.946Z,38.00
2019-02-21T03:07:55.912Z,37.90
2019-02-21T03:10:32.206Z,37.90
2019-02-21T03:13:08.368Z,37.90
2019-02-21T03:15:44.233Z,37.80
2019-02-21T03:18:20.584Z,37.70
2019-02-21T03:20:56.854Z,37.70
2019-02-21T03:23:33.798Z,37.70
2019-02-21T03:26:11.325Z,37.70
2019-02-21T03:28:47.725Z,37.60
2019-02-21T03:31:23.514Z,37.70
2019-02-21T03:33:59.387Z,37.60
2019-02-21T03:36:35.384Z,37.80
2019-02-21T03:39:12.773Z,37.70
2019-02-21T03:41:49.657Z,37.70
2019-02-21T03:44:26.101Z,37.70
2019-02-21T03:47:02.462Z,37.60
2019-02-21T03:49:39.056Z,37.70
2019-02-21T03:52:15.404Z,37.70
2019-02-21T03:54:53.189Z,37.70
2019-02-21T03:57:29.166Z,37.70
2019-02-21T04:00:06.897Z,37.70
2019-02-21T04:02:43.583Z,37.70
2019-02-21T04:05:19.496Z,37.60
2019-02-21T04:07:55.555Z,37.60
2019-02-21T04:10:33.055Z,37.60
2019-02-21T04:13:09.572Z,37.70
2019-02-21T04:15:46.556Z,37.60
2019-02-21T04:18:22.938Z,37.70
2019-02-21T04:20:59.685Z,37.50
2019-02-21T04:23:35.881Z,37.50
2019-02-21T04:26:12.956Z,37.50
2019-02-21T04:28:49.727Z,37.50
2019-02-21T04:31:26.161Z,37.70
2019-02-21T04:34:02.267Z,37.60
2019-02-21T04:36:38.118Z,37.70
2019-02-21T04:39:14.289Z,37.50
2019-02-21T04:41:51.248Z,37.60
2019-02-21T04:44:27.132Z,37.50
2019-02-21T04:47:03.339Z,37.50
2019-02-21T04:49:39.007Z,37.50
2019-02-21T04:52:15.900Z,37.50
2019-02-21T04:54:52.376Z,37.50
2019-02-21T04:57:29.083Z,37.60
2019-02-21T05:00:07.648Z,37.40
2019-02-21T05:02:43.916Z,37.40
2019-02-21T05:05:20.206Z,37.60
2019-02-21T05:07:57.777Z,37.50
2019-02-21T05:10:33.685Z,37.40
2019-02-21T05:13:10.071Z,37.30
2019-02-21T05:15:45.901Z,37.30
2019-02-21T05:18:22.419Z,37.50
2019-02-21T05:20:58.493Z,38.00
2019-02-21T05:23:36.781Z,37.80
2019-02-21T05:26:16.478Z,37.60
2019-02-21T05:28:52.277Z,37.50
2019-02-21T05:31:42.272Z,37.40
2019-02-21T05:34:47.552Z,37.50
2019-02-21T05:37:41.359Z,37.50
2019-02-21T05:40:52.415Z,37.50
2019-02-21T05:43:45.814Z,37.60
2019-02-21T05:46:50.562Z,37.60
2019-02-21T05:49:51.854Z,37.60
2019-02-21T05:52:37.233Z,37.40
2019-02-21T05:55:19.609Z,37.40
2019-02-21T05:58:01.699Z,37.80
2019-02-21T06:00:59.564Z,37.90
2019-02-21T06:03:49.765Z,37.70
2019-02-21T06:06:43.523Z,37.60
2019-02-21T06:09:28.766Z,38.10
2019-02-21T06:12:16.446Z,39.70
2019-02-21T06:15:08.584Z,38.60
2019-02-21T06:18:09.898Z,38.70
2019-02-21T06:20:59.168Z,39.40
2019-02-21T06:23:56.882Z,40.90
2019-02-21T06:26:50.318Z,42.30
2019-02-21T06:29:30.231Z,40.10
2019-02-21T06:32:13.834Z,46.60
2019-02-21T06:34:44.793Z,46.40
2019-02-21T06:37:21.313Z,44.50
2019-02-21T06:39:57.310Z,44.80
2019-02-21T06:42:34.306Z,44.70
2019-02-21T06:45:12.402Z,44.60
2019-02-21T06:47:49.924Z,44.20
2019-02-21T06:50:27.128Z,44.70
2019-02-21T06:53:03.650Z,44.20
2019-02-21T06:55:39.537Z,43.80
2019-02-21T06:58:16.488Z,43.50
2019-02-21T07:00:53.040Z,42.90
2019-02-21T07:03:29.127Z,42.70
2019-02-21T07:06:05.584Z,42.20
2019-02-21T07:08:41.949Z,42.20
2019-02-21T07:11:17.885Z,42.50
2019-02-21T07:13:54.677Z,41.90
2019-02-21T07:16:31.306Z,41.30
2019-02-21T07:19:07.628Z,40.90
2019-02-21T07:21:44.495Z,40.70
2019-02-21T07:24:20.631Z,41.70
2019-02-21T07:26:56.757Z,37.30
2019-02-21T07:29:33.093Z,35.50
2019-02-21T07:32:08.893Z,36.00
2019-02-21T07:34:45.393Z,36.10
2019-02-21T07:37:21.299Z,36.60
2019-02-21T07:39:58.344Z,36.60
2019-02-21T07:42:35.221Z,36.80
2019-02-21T07:45:12.010Z,36.70
2019-02-21T07:47:48.400Z,36.90
2019-02-21T07:50:24.273Z,37.20
2019-02-21T07:53:02.695Z,37.30
2019-02-21T07:55:38.431Z,37.40
2019-02-21T07:58:14.627Z,37.40
2019-02-21T08:00:53.939Z,37.50
2019-02-21T08:03:32.171Z,37.60
2019-02-21T08:06:06.622Z,37.60
2019-02-21T08:08:45.012Z,37.60
2019-02-21T08:11:21.747Z,37.60
2019-02-21T08:13:58.749Z,37.60
2019-02-21T08:16:35.562Z,37.60
2019-02-21T08:19:12.340Z,37.60
2019-02-21T08:21:49.384Z,37.60
2019-02-21T08:24:26.116Z,37.60
2019-02-21T08:27:02.069Z,37.60
2019-02-21T08:29:38.179Z,37.60
2019-02-21T08:32:16.016Z,37.60
2019-02-21T08:34:53.421Z,37.60
2019-02-21T08:37:29.143Z,37.70
2019-02-21T08:40:05.949Z,37.60
2019-02-21T08:42:41.982Z,37.60
2019-02-21T08:45:18.427Z,37.50
2019-02-21T08:47:54.821Z,37.50
2019-02-21T08:50:31.021Z,37.50
2019-02-21T08:53:07.748Z,37.50
2019-02-21T08:55:43.896Z,37.40
2019-02-21T08:58:20.188Z,37.40
2019-02-21T09:00:56.550Z,37.50
2019-02-21T09:03:33.146Z,37.40
2019-02-21T09:06:09.568Z,37.50
2019-02-21T09:08:46.173Z,37.50
2019-02-21T09:11:23.328Z,37.50
2019-02-21T09:13:59.640Z,37.50
2019-02-21T09:16:35.404Z,37.60
2019-02-21T09:19:12.230Z,37.60
2019-02-21T09:21:48.277Z,37.60
2019-02-21T09:24:37.391Z,37.60
2019-02-21T09:27:02.557Z,37.60
2019-02-21T09:29:38.933Z,37.60
2019-02-21T09:32:15.578Z,37.60
2019-02-21T09:34:51.637Z,37.60
2019-02-21T09:37:27.449Z,37.60
2019-02-21T09:40:05.745Z,37.60
2019-02-21T09:42:42.029Z,37.60
2019-02-21T09:45:18.756Z,37.60
2019-02-21T09:47:54.561Z,37.60
2019-02-21T09:50:31.557Z,37.60
2019-02-21T09:53:07.451Z,37.60
2019-02-21T09:55:43.289Z,37.70
2019-02-21T09:58:19.735Z,37.70
2019-02-21T10:00:57.014Z,37.70
2019-02-21T10:03:33.802Z,37.70
2019-02-21T10:06:11.268Z,37.70
2019-02-21T10:08:47.363Z,37.70
2019-02-21T10:11:24.555Z,37.70
2019-02-21T10:14:00.800Z,37.80
2019-02-21T10:16:37.799Z,38.20
2019-02-21T10:19:13.715Z,37.70
2019-02-21T10:21:50.829Z,37.80
2019-02-21T10:24:27.160Z,37.70
2019-02-21T10:27:03.867Z,37.70
2019-02-21T10:29:40.313Z,37.70
2019-02-21T10:32:17.117Z,37.70
2019-02-21T10:34:53.167Z,37.70
2019-02-21T10:37:29.976Z,37.70
2019-02-21T10:40:08.324Z,37.80
2019-02-21T10:42:44.776Z,37.70
2019-02-21T10:45:20.828Z,37.70
2019-02-21T10:47:56.744Z,37.80
2019-02-21T10:50:32.834Z,37.70
2019-02-21T10:53:09.347Z,37.70
2019-02-21T10:55:48.015Z,37.70
2019-02-21T10:58:24.174Z,37.70
2019-02-21T11:01:00.001Z,37.70
2019-02-21T11:03:36.745Z,37.70
2019-02-21T11:06:12.616Z,37.70
2019-02-21T11:08:48.785Z,37.70
2019-02-21T11:11:25.228Z,37.70
2019-02-21T11:14:00.931Z,37.70
2019-02-21T11:16:37.236Z,37.80
2019-02-21T11:19:13.598Z,37.70
2019-02-21T11:21:49.717Z,37.70
2019-02-21T11:24:26.505Z,37.70
2019-02-21T11:27:02.936Z,37.60
2019-02-21T11:29:38.852Z,37.60
2019-02-21T11:32:16.124Z,37.60
2019-02-21T11:34:53.480Z,38.30
2019-02-21T11:37:29.330Z,37.60
2019-02-21T11:40:07.209Z,37.60
2019-02-21T11:42:43.930Z,37.60
2019-02-21T11:45:20.994Z,37.60
2019-02-21T11:47:57.583Z,37.70
2019-02-21T11:50:35.008Z,37.60
2019-02-21T11:53:11.163Z,37.70
2019-02-21T11:55:47.478Z,37.70
2019-02-21T11:58:23.332Z,37.70
2019-02-21T12:01:00.393Z,37.70
2019-02-21T12:03:36.656Z,37.70
2019-02-21T12:06:16.032Z,37.60
2019-02-21T12:08:51.971Z,37.60
2019-02-21T12:11:28.882Z,37.50
2019-02-21T12:14:05.316Z,37.50
2019-02-21T12:16:41.508Z,37.40
2019-02-21T12:19:17.549Z,37.40
2019-02-21T12:21:59.012Z,37.50
2019-02-21T12:24:32.840Z,37.50
2019-02-21T12:27:08.514Z,37.50
2019-02-21T12:29:45.484Z,37.30
2019-02-21T12:32:22.079Z,37.10
2019-02-21T12:34:57.849Z,36.80
2019-02-21T12:37:34.889Z,37.10
2019-02-21T12:40:13.240Z,37.10
2019-02-21T12:42:49.076Z,37.00
2019-02-21T12:45:25.206Z,37.20
2019-02-21T12:48:02.021Z,37.10
2019-02-21T12:50:44.201Z,37.10
2019-02-21T12:53:17.104Z,37.10
2019-02-21T12:55:52.976Z,36.90
2019-02-21T12:58:29.814Z,36.90
2019-02-21T13:01:06.357Z,36.90
2019-02-21T13:03:43.871Z,36.80
2019-02-21T13:06:20.216Z,36.90
2019-02-21T13:08:56.577Z,36.90
2019-02-21T13:11:32.700Z,37.00
2019-02-21T13:14:08.724Z,36.90
2019-02-21T13:16:45.072Z,36.90
2019-02-21T13:19:22.286Z,37.00
2019-02-21T13:21:58.948Z,37.00
2019-02-21T13:24:36.135Z,37.00
2019-02-21T13:27:12.860Z,37.00
2019-02-21T13:29:50.032Z,37.00
2019-02-21T13:32:26.037Z,37.00
2019-02-21T13:35:02.585Z,37.00
2019-02-21T13:37:39.598Z,37.00
2019-02-21T13:40:16.504Z,37.10
2019-02-21T13:42:52.620Z,37.10
2019-02-21T13:45:29.924Z,37.10
2019-02-21T13:48:06.497Z,37.10
2019-02-21T13:50:44.776Z,37.10
2019-02-21T13:53:21.057Z,37.10
2019-02-21T13:55:57.564Z,37.10
2019-02-21T13:58:33.686Z,37.10
2019-02-21T14:01:11.079Z,37.10
2019-02-21T14:03:47.632Z,37.10
2019-02-21T14:06:23.681Z,37.10
2019-02-21T14:09:00.289Z,37.20
2019-02-21T14:11:36.531Z,37.20
2019-02-21T14:14:12.891Z,37.10
2019-02-21T14:16:48.897Z,37.20
2019-02-21T14:19:25.692Z,37.20
2019-02-21T14:22:02.226Z,37.20
2019-02-21T14:24:39.900Z,37.20
2019-02-21T14:27:16.395Z,37.20
2019-02-21T14:29:52.639Z,37.20
2019-02-21T14:32:28.453Z,37.20
2019-02-21T14:35:04.659Z,37.20
2019-02-21T14:37:40.632Z,37.30
2019-02-21T14:40:17.288Z,37.20
2019-02-21T14:42:54.162Z,37.20
2019-02-21T14:45:30.730Z,37.20
2019-02-21T14:48:06.942Z,37.30
2019-02-21T14:50:43.359Z,37.30
2019-02-21T14:53:20.768Z,37.30
2019-02-21T14:55:57.216Z,37.40
2019-02-21T14:58:33.809Z,37.40
2019-02-21T15:01:09.950Z,37.40
2019-02-21T15:03:45.637Z,37.30
2019-02-21T15:06:26.957Z,37.30
2019-02-21T15:09:01.181Z,37.30
2019-02-21T15:11:38.029Z,37.30
2019-02-21T15:14:14.665Z,37.50
2019-02-21T15:16:51.015Z,37.40
2019-02-21T15:19:27.653Z,37.50
2019-02-21T15:22:04.061Z,37.40
2019-02-21T15:24:41.150Z,37.40
2019-02-21T15:27:17.797Z,37.40
2019-02-21T15:29:56.679Z,37.40
2019-02-21T15:32:32.440Z,37.50
2019-02-21T15:35:09.896Z,37.40
2019-02-21T15:37:46.137Z,37.50
2019-02-21T15:40:22.618Z,37.60
2019-02-21T15:42:59.320Z,37.50
2019-02-21T15:45:36.238Z,37.50
2019-02-21T15:48:12.827Z,37.50
2019-02-21T15:50:49.577Z,37.50
2019-02-21T15:53:25.463Z,37.50
2019-02-21T15:56:01.544Z,37.50
2019-02-21T15:58:37.780Z,37.60
2019-02-21T16:01:14.370Z,37.60
2019-02-21T16:03:50.335Z,37.60
2019-02-21T16:06:27.304Z,37.60
2019-02-21T16:09:15.616Z,37.60
2019-02-21T16:11:43.061Z,37.60
2019-02-21T16:14:18.765Z,37.60
2019-02-21T16:16:54.821Z,37.60
2019-02-21T16:19:30.547Z,37.60
2019-02-21T16:22:07.252Z,37.60
2019-02-21T16:24:44.098Z,37.60
2019-02-21T16:27:19.933Z,37.60
2019-02-21T16:29:55.923Z,37.70
2019-02-21T16:32:32.710Z,37.70
2019-02-21T16:35:09.773Z,37.80
2019-02-21T16:37:45.988Z,37.70
2019-02-21T16:40:22.207Z,37.70
2019-02-21T16:42:58.416Z,38.40
2019-02-21T16:45:43.600Z,37.80
2019-02-21T16:48:12.957Z,37.30
2019-02-21T16:50:49.317Z,37.90
2019-02-21T16:53:25.504Z,37.90
2019-02-21T16:56:01.398Z,37.90
2019-02-21T16:58:38.223Z,37.90
2019-02-21T17:01:14.764Z,37.90
2019-02-21T17:03:51.733Z,38.10
2019-02-21T17:06:28.236Z,37.90
2019-02-21T17:09:07.353Z,37.90
2019-02-21T17:11:44.209Z,38.00
2019-02-21T17:14:20.144Z,38.10
2019-02-21T17:16:56.758Z,38.30
2019-02-21T17:19:32.517Z,38.30
2019-02-21T17:22:08.656Z,38.10
2019-02-21T17:24:45.437Z,38.20
2019-02-21T17:27:21.601Z,38.20
2019-02-21T17:29:59.282Z,38.20
2019-02-21T17:32:35.451Z,38.80
2019-02-21T17:35:11.834Z,39.40
2019-02-21T17:37:48.001Z,39.50
2019-02-21T17:40:24.940Z,39.60
2019-02-21T17:43:01.490Z,39.80
2019-02-21T17:45:37.581Z,39.90
2019-02-21T17:48:13.857Z,39.80
2019-02-21T17:50:49.696Z,39.70
2019-02-21T17:53:25.676Z,39.60
2019-02-21T17:56:02.534Z,39.60
2019-02-21T17:58:39.221Z,40.40
2019-02-21T18:01:15.760Z,40.70
2019-02-21T18:03:52.631Z,40.80
2019-02-21T18:06:29.003Z,40.50
2019-02-21T18:09:05.424Z,40.30
2019-02-21T18:11:41.925Z,40.10
2019-02-21T18:14:17.627Z,40.20
2019-02-21T18:16:54.048Z,40.10
2019-02-21T18:19:30.558Z,40.10
2019-02-21T18:22:07.077Z,40.10
2019-02-21T18:24:43.283Z,40.00
2019-02-21T18:27:20.305Z,40.10
2019-02-21T18:29:56.945Z,40.20
2019-02-21T18:32:33.327Z,40.00
2019-02-21T18:35:10.431Z,40.10
2019-02-21T18:37:47.969Z,40.10
2019-02-21T18:40:24.150Z,40.10
2019-02-21T18:43:00.564Z,40.00
2019-02-21T18:45:37.071Z,39.90
2019-02-21T18:48:13.273Z,40.00
2019-02-21T18:50:49.047Z,39.80
2019-02-21T18:53:25.512Z,40.00
2019-02-21T18:56:09.713Z,39.80
2019-02-21T18:58:53.022Z,39.90
2019-02-21T19:01:29.118Z,39.80
2019-02-21T19:04:04.841Z,39.80
2019-02-21T19:06:41.248Z,40.00
2019-02-21T19:09:17.713Z,40.10
2019-02-21T19:11:54.052Z,40.20
2019-02-21T19:14:31.968Z,40.20
2019-02-21T19:17:08.328Z,40.30
2019-02-21T19:19:44.756Z,40.30
2019-02-21T19:22:21.172Z,40.30
2019-02-21T19:24:57.866Z,40.40
2019-02-21T19:27:37.071Z,40.20
2019-02-21T19:30:35.881Z,40.10
2019-02-21T19:33:12.433Z,40.20
2019-02-21T19:35:48.682Z,40.10
2019-02-21T19:38:25.844Z,40.20
2019-02-21T19:41:02.425Z,40.20
2019-02-21T19:43:38.516Z,40.20
2019-02-21T19:46:14.728Z,40.30
2019-02-21T19:48:50.850Z,40.10
2019-02-21T19:51:27.156Z,40.30
2019-02-21T19:54:03.051Z,40.40
2019-02-21T19:56:39.534Z,40.60
2019-02-21T19:59:15.589Z,40.50
2019-02-21T20:01:52.154Z,40.40
2019-02-21T20:04:28.252Z,40.40
2019-02-21T20:07:05.027Z,40.30
2019-02-21T20:09:41.371Z,40.20
2019-02-21T20:12:18.759Z,40.20
2019-02-21T20:14:55.306Z,40.90
2019-02-21T20:17:31.495Z,40.20
2019-02-21T20:20:08.599Z,40.10
2019-02-21T20:22:45.110Z,40.10
2019-02-21T20:25:21.277Z,40.10
2019-02-21T20:27:58.277Z,40.10
2019-02-21T20:30:35.144Z,40.20
2019-02-21T20:33:11.265Z,40.40
2019-02-21T20:35:48.039Z,40.20
2019-02-21T20:38:31.796Z,40.30
2019-02-21T20:41:02.624Z,40.40
2019-02-21T20:43:39.301Z,40.40
2019-02-21T20:46:15.832Z,40.40
2019-02-21T20:48:53.137Z,40.40
2019-02-21T20:51:29.364Z,40.40
2019-02-21T20:54:05.648Z,40.50
2019-02-21T20:56:41.960Z,40.40
2019-02-21T20:59:17.789Z,40.50
2019-02-21T21:01:54.641Z,40.50
2019-02-21T21:04:30.662Z,40.30
2019-02-21T21:07:06.826Z,40.40
2019-02-21T21:09:43.482Z,40.40
2019-02-21T21:12:19.453Z,40.50
2019-02-21T21:14:56.253Z,40.40
2019-02-21T21:17:32.943Z,40.50
2019-02-21T21:20:16.511Z,40.40
2019-02-21T21:22:48.865Z,40.40
2019-02-21T21:25:25.550Z,40.40
2019-02-21T21:28:01.539Z,40.60
2019-02-21T21:30:37.310Z,40.60
2019-02-21T21:33:13.869Z,40.60
2019-02-21T21:35:50.654Z,40.70
2019-02-21T21:38:26.585Z,40.70
2019-02-21T21:41:03.397Z,40.90
2019-02-21T21:43:40.244Z,40.70
2019-02-21T21:46:16.732Z,40.60
2019-02-21T21:48:53.284Z,40.50
2019-02-21T21:51:29.864Z,40.60
2019-02-21T21:54:06.838Z,40.40
2019-02-21T21:56:44.241Z,40.40
2019-02-21T21:59:20.702Z,40.80
2019-02-21T22:01:56.702Z,41.00
2019-02-21T22:04:32.703Z,41.00
2019-02-21T22:07:09.724Z,40.90
2019-02-21T22:09:46.065Z,40.80
2019-02-21T22:12:21.870Z,40.60
2019-02-21T22:14:58.948Z,40.60
2019-02-21T22:17:35.085Z,40.50
2019-02-21T22:20:11.956Z,40.40
2019-02-21T22:22:48.965Z,40.40
2019-02-21T22:25:26.722Z,40.30
2019-02-21T22:28:03.406Z,40.30
2019-02-21T22:30:40.084Z,40.30
2019-02-21T22:33:17.136Z,40.30
2019-02-21T22:35:53.378Z,40.20
2019-02-21T22:38:30.717Z,40.90
2019-02-21T22:41:07.748Z,40.30
2019-02-21T22:43:44.533Z,40.40
2019-02-21T22:46:21.004Z,40.30
2019-02-21T22:48:57.918Z,40.30
2019-02-21T22:51:33.845Z,40.70
2019-02-21T22:54:14.664Z,41.10
2019-02-21T22:56:56.464Z,40.60
2019-02-21T22:59:34.405Z,40.50
2019-02-21T23:02:13.563Z,40.70
2019-02-21T23:05:17.404Z,40.70
2019-02-21T23:08:12.381Z,40.70
2019-02-21T23:10:52.606Z,40.40
2019-02-21T23:13:29.085Z,40.40
2019-02-21T23:16:05.552Z,40.90
2019-02-21T23:18:41.705Z,40.30
2019-02-21T23:21:18.145Z,40.20
2019-02-21T23:23:54.446Z,40.30
2019-02-21T23:26:32.120Z,40.20
2019-02-21T23:29:08.514Z,40.20
2019-02-21T23:31:45.454Z,40.10
2019-02-21T23:34:36.692Z,40.60
2019-02-21T23:37:13.187Z,40.10
2019-02-21T23:39:49.633Z,40.10
2019-02-21T23:42:26.072Z,40.10
2019-02-21T23:45:02.450Z,40.10
2019-02-21T23:47:49.096Z,40.10
2019-02-21T23:50:16.965Z,40.00
2019-02-21T23:52:53.828Z,40.00
2019-02-21T23:55:30.078Z,40.10
2019-02-21T23:58:07.389Z,40.10
